Bookmark and Share
Track history (hours):
 

Magne Viking

Last reported at 2014-Apr-23 01:24 UTC. Time now 2014-Apr-24 06:09 UTC.
Position N 57°48' W 001°13'.

Length 85 m; draft 6.8 m.

Type: Tug. MMSI: 219375000.

NotesDate/timePositionNaut miles runAvg speedWind from/ knotsBaromVisibWave heightAir tempDewpointWater temp
2014-Apr-23 01:24N 57°48' W 001°13'910.8
2014-Apr-23 00:34N 57°40' W 001°22'1111.1
2014-Apr-22 23:33N 57°31' W 001°35'1111.3
2014-Apr-22 22:33N 57°22' W 001°46'1111.1
2014-Apr-22 21:32N 57°12' W 001°58'5 5.2
2014-Apr-22 20:33N 57°09' W 002°05'0 0.0
2014-Apr-22 19:33N 57°09' W 002°05'0 0.0
2014-Apr-22 18:31N 57°09' W 002°05'0 0.0
2014-Apr-22 17:32N 57°09' W 002°05'0 0.0
2014-Apr-22 16:33N 57°09' W 002°05'0 0.0
2014-Apr-22 15:33N 57°09' W 002°05'0 0.0
2014-Apr-22 14:31N 57°09' W 002°05'0 0.0
2014-Apr-22 13:32N 57°09' W 002°05'0 0.0
2014-Apr-22 12:32N 57°09' W 002°05'0 0.0
2014-Apr-22 11:33N 57°09' W 002°05'0 0.0
2014-Apr-22 10:28N 57°09' W 002°05'0 0.0
2014-Apr-22 09:31N 57°09' W 002°05'0 0.4
2014-Apr-22 09:06N 57°09' W 002°05'0 0.0
2014-Apr-21 17:31N 57°09' W 002°05'0 0.0
2014-Apr-21 13:25N 57°09' W 002°05'0 0.0
2014-Apr-21 12:31N 57°09' W 002°05'0 0.0
2014-Apr-21 11:32N 57°09' W 002°05'0 0.0
2014-Apr-21 10:33N 57°09' W 002°05'0 0.0
2014-Apr-21 09:33N 57°09' W 002°05'0 0.0
2014-Apr-21 08:31N 57°09' W 002°05'0 0.0
2014-Apr-21 07:32N 57°09' W 002°05'0 0.0
2014-Apr-21 06:32N 57°09' W 002°05'0 0.0
2014-Apr-21 05:33N 57°09' W 002°05'0 0.0
2014-Apr-21 04:31N 57°09' W 002°05'0 0.0
2014-Apr-21 03:31N 57°09' W 002°05'0 0.0
2014-Apr-21 02:32N 57°09' W 002°05'0 0.2
2014-Apr-21 01:34N 57°09' W 002°05'0 0.1
2014-Apr-21 00:33N 57°09' W 002°05'0 0.0
2014-Apr-20 23:33N 57°09' W 002°05'0 0.0
2014-Apr-20 22:31N 57°09' W 002°05'0 0.0
2014-Apr-20 21:32N 57°09' W 002°05'0 0.0
2014-Apr-20 20:32N 57°09' W 002°05'0 0.0
2014-Apr-20 19:33N 57°09' W 002°05'1 0.5
2014-Apr-20 18:34N 57°08' W 002°04'12 5.9
2014-Apr-20 16:33N 57°17' W 001°50'1010.0
2014-Apr-20 15:33N 57°24' W 001°37'1110.9
2014-Apr-20 14:33N 57°34' W 001°26'1211.6
2014-Apr-20 13:33N 57°43' W 001°12'1111.2
2014-Apr-20 12:33N 57°51' W 000°59'1111.0
2014-Apr-20 11:33N 57°60' W 000°46'111 4.5
2014-Apr-19 11:14N 59°22' E 001°36'0 0.0
2014-Apr-19 07:31N 59°22' E 001°36'0 0.0
2014-Apr-19 05:23N 59°22' E 001°36'0 0.0
2014-Apr-19 04:30N 59°22' E 001°36'0 0.0
2014-Apr-19 03:32N 59°22' E 001°36'0 0.0
2014-Apr-19 02:33N 59°22' E 001°36'0 0.1
2014-Apr-19 01:23N 59°22' E 001°36'4 0.2
2014-Apr-18 01:30N 59°18' E 001°31'2 0.1
2014-Apr-16 17:09N 59°21' E 001°32'175 4.1
2014-Apr-14 22:34N 57°09' W 002°05'0 0.0
2014-Apr-14 21:32N 57°09' W 002°05'0 0.0
2014-Apr-14 20:33N 57°09' W 002°05'0 0.0
2014-Apr-14 19:33N 57°09' W 002°05'0 0.0
2014-Apr-14 17:32N 57°09' W 002°05'0 0.2
2014-Apr-14 16:32N 57°09' W 002°05'0 0.0
2014-Apr-14 15:33N 57°09' W 002°05'0 0.0
2014-Apr-14 14:34N 57°09' W 002°05'0 0.1
2014-Apr-14 13:34N 57°08' W 002°04'  

Dump ship's entire track history

sailing weather and tide predictions

Magne Viking — OURK2 — position and weather